Terminal Aerodrome Forecast
Issued by NWS Tiyan, Guam

Home | Current Version | Previous Version | Text Only | Print | Product List | Glossary On
Versions: 1 2 3 4 5 6 7 8 9 10 11 12 13 14
000
FTPQ31 PGUM 241140
TAFGUM
TAF
PGUM 241140Z 2412/2518 06011KT P6SM VCSH FEW015 SCT040
      TEMPO 2416/2420 -SHRA SCT015 OVC035
     FM242000 06011KT P6SM -SHRA SCT015 BKN035 OVC100
     FM250500 12011KT P6SM VCSH SCT015 BKN050 OVC100=

USA.gov is the U.S. government's official web portal to all federal, state and local government web resources and services.